Time;durP1;ratioP1;P1;durP2;ratioP2;P2;SDS_P1;SDS_P2;PMS_P1;PMS_P2;Temp;Humidity;BMP_temperature;BMP_pressure;BME280_temperature;BME280_humidity;BME280_pressure;Samples;Min_cycle;Max_cycle;Signal;HPM_P1;HPM_P2
2021/08/20 00:01:22;;;;;;;;;4.50;3.75;;;;;;;;5080621;28;47060;-78
2021/08/20 00:03:48;;;;;;;;;3.50;1.50;;;;;;;;5080842;28;46926;-78
2021/08/20 00:06:13;;;;;;;;;4.25;4.25;;;;;;;;5062280;28;47091;-78
2021/08/20 00:08:38;;;;;;;;;3.50;3.50;;;;;;;;5081228;28;46954;-78
2021/08/20 00:11:04;;;;;;;;;5.50;4.00;;;;;;;;5080404;28;47049;-78
2021/08/20 00:13:29;;;;;;;;;3.00;3.00;;;;;;;;5080340;28;46977;-78
2021/08/20 00:15:55;;;;;;;;;3.00;3.00;;;;;;;;5062074;28;46949;-78
2021/08/20 00:18:20;;;;;;;;;3.75;3.25;;;;;;;;5080828;28;47025;-78
2021/08/20 00:20:45;;;;;;;;;4.75;3.25;;;;;;;;5080170;28;46958;-78
2021/08/20 00:23:11;;;;;;;;;4.50;2.00;;;;;;;;5062139;28;47173;-78
2021/08/20 00:25:36;;;;;;;;;2.00;2.00;;;;;;;;5076789;28;47027;-78
2021/08/20 00:28:01;;;;;;;;;4.00;3.00;;;;;;;;5052907;28;47288;-78
2021/08/20 00:30:27;;;;;;;;;4.00;4.00;;;;;;;;5080261;28;47787;-78
2021/08/20 00:32:52;;;;;;;;;5.00;3.00;;;;;;;;5080206;28;46818;-78
2021/08/20 00:35:17;;;;;;;;;2.75;2.00;;;;;;;;5080234;28;47110;-78
2021/08/20 00:37:43;;;;;;;;;3.00;3.00;;;;;;;;5062131;28;47230;-78
2021/08/20 00:40:08;;;;;;;;;3.00;3.00;;;;;;;;5080021;28;46864;-78
2021/08/20 00:42:34;;;;;;;;;4.50;3.00;;;;;;;;5079905;28;46861;-78
2021/08/20 00:44:59;;;;;;;;;2.50;2.50;;;;;;;;5079940;28;46793;-78
2021/08/20 00:47:24;;;;;;;;;5.25;3.00;;;;;;;;5080371;28;47054;-78
2021/08/20 00:49:51;;;;;;;;;5.00;4.75;;;;;;;;5079825;28;46868;-78
2021/08/20 00:52:17;;;;;;;;;4.00;3.00;;;;;;;;5080019;28;46939;-78
2021/08/20 00:54:43;;;;;;;;;2.75;2.00;;;;;;;;5061724;28;47009;-78
2021/08/20 00:57:08;;;;;;;;;4.00;3.00;;;;;;;;5079871;28;47110;-78
2021/08/20 00:59:34;;;;;;;;;3.50;3.50;;;;;;;;5079812;28;47852;-78
2021/08/20 01:02:00;;;;;;;;;2.75;2.75;;;;;;;;5080033;28;47057;-78
2021/08/20 01:04:26;;;;;;;;;5.25;4.00;;;;;;;;5079706;28;46915;-78
2021/08/20 01:06:55;;;;;;;;;5.00;4.00;;;;;;;;5080090;28;46923;-78
2021/08/20 01:09:21;;;;;;;;;4.75;4.75;;;;;;;;5079629;28;47810;-78
2021/08/20 01:11:47;;;;;;;;;3.25;3.00;;;;;;;;5079532;28;46901;-78
2021/08/20 01:14:16;;;;;;;;;3.50;3.25;;;;;;;;5079349;28;46880;-78
2021/08/20 01:16:42;;;;;;;;;4.50;3.75;;;;;;;;5079903;28;47249;-78
2021/08/20 01:19:07;;;;;;;;;6.00;3.25;;;;;;;;5079475;28;46908;-78
2021/08/20 01:21:32;;;;;;;;;3.25;1.50;;;;;;;;5079493;28;46979;-78
2021/08/20 01:23:59;;;;;;;;;3.75;2.25;;;;;;;;5079624;28;46888;-78
2021/08/20 01:26:25;;;;;;;;;3.50;2.50;;;;;;;;5079507;28;46774;-78
2021/08/20 01:28:50;;;;;;;;;1.50;1.50;;;;;;;;5079051;28;47017;-78
2021/08/20 01:31:16;;;;;;;;;4.75;2.00;;;;;;;;5079436;28;46924;-77
2021/08/20 01:33:41;;;;;;;;;3.75;3.25;;;;;;;;5079439;28;47012;-77
2021/08/20 01:36:08;;;;;;;;;3.50;3.25;;;;;;;;5079625;28;46763;-78
2021/08/20 01:38:43;;;;;;;;;2.50;2.25;;;;;;;;5079235;28;46968;-78
2021/08/20 01:41:08;;;;;;;;;5.00;3.25;;;;;;;;5079353;28;47244;-78
2021/08/20 01:43:33;;;;;;;;;5.25;2.50;;;;;;;;5078917;28;46918;-78
2021/08/20 01:45:59;;;;;;;;;3.00;2.25;;;;;;;;5079374;28;46932;-78
2021/08/20 01:48:24;;;;;;;;;2.25;2.25;;;;;;;;5078998;28;47627;-78
2021/08/20 01:50:49;;;;;;;;;4.50;3.50;;;;;;;;5060869;28;47047;-78
2021/08/20 01:53:15;;;;;;;;;3.75;2.50;;;;;;;;5060853;28;46971;-78
2021/08/20 01:55:41;;;;;;;;;3.50;3.25;;;;;;;;5079471;28;47030;-78
2021/08/20 01:58:07;;;;;;;;;3.50;2.50;;;;;;;;5078573;28;47796;-78
2021/08/20 02:00:33;;;;;;;;;1.50;1.50;;;;;;;;5079208;28;46938;-78
2021/08/20 02:02:58;;;;;;;;;2.50;2.00;;;;;;;;5079077;28;46823;-78
2021/08/20 02:05:23;;;;;;;;;3.75;2.50;;;;;;;;5060939;28;46878;-78
2021/08/20 02:07:49;;;;;;;;;4.50;3.50;;;;;;;;5078760;28;47948;-78
2021/08/20 02:10:14;;;;;;;;;2.50;2.50;;;;;;;;5079046;28;46734;-78
2021/08/20 02:12:39;;;;;;;;;3.50;2.50;;;;;;;;5081322;28;46934;-78
2021/08/20 02:15:05;;;;;;;;;3.50;3.50;;;;;;;;5082606;28;46805;-78
2021/08/20 02:17:31;;;;;;;;;2.75;2.25;;;;;;;;5082251;28;46864;-78
2021/08/20 02:19:56;;;;;;;;;2.50;2.50;;;;;;;;5082542;28;46850;-78
2021/08/20 02:22:21;;;;;;;;;3.75;2.00;;;;;;;;5082273;28;46794;-78
2021/08/20 02:24:47;;;;;;;;;0.75;0.75;;;;;;;;5082653;28;46834;-78
2021/08/20 02:27:12;;;;;;;;;3.25;3.25;;;;;;;;5068619;28;47187;-78
2021/08/20 02:29:37;;;;;;;;;2.50;2.50;;;;;;;;5064008;28;46900;-78
2021/08/20 02:32:03;;;;;;;;;2.75;1.75;;;;;;;;5082223;28;46912;-78
2021/08/20 02:34:28;;;;;;;;;4.00;3.25;;;;;;;;5082401;28;47063;-78
2021/08/20 02:36:54;;;;;;;;;4.75;3.50;;;;;;;;5082126;28;47660;-78
2021/08/20 02:39:19;;;;;;;;;4.50;3.50;;;;;;;;5063934;28;47121;-78
2021/08/20 02:41:44;;;;;;;;;3.25;3.25;;;;;;;;5081882;28;47093;-78
2021/08/20 02:44:09;;;;;;;;;3.50;2.50;;;;;;;;5082236;28;47285;-78
2021/08/20 02:46:36;;;;;;;;;2.75;2.75;;;;;;;;5081795;28;47025;-78
2021/08/20 02:49:01;;;;;;;;;3.75;2.75;;;;;;;;5082013;28;46939;-78
2021/08/20 02:51:27;;;;;;;;;3.50;3.50;;;;;;;;5063697;28;47042;-78
2021/08/20 02:53:52;;;;;;;;;2.25;2.25;;;;;;;;5082191;28;46903;-78
2021/08/20 02:56:17;;;;;;;;;3.75;3.75;;;;;;;;5081746;28;46813;-78
2021/08/20 02:58:43;;;;;;;;;3.00;2.50;;;;;;;;5081508;28;46897;-78
2021/08/20 03:01:08;;;;;;;;;1.50;1.50;;;;;;;;5081788;28;46858;-78
2021/08/20 03:03:33;;;;;;;;;6.00;3.50;;;;;;;;5063783;28;46914;-78
2021/08/20 03:05:58;;;;;;;;;3.25;3.25;;;;;;;;5081439;28;47804;-78
2021/08/20 03:08:24;;;;;;;;;3.75;3.25;;;;;;;;5081786;28;46984;-78
2021/08/20 03:10:49;;;;;;;;;3.75;3.75;;;;;;;;5081547;28;47134;-78
2021/08/20 03:13:14;;;;;;;;;4.00;2.75;;;;;;;;5081423;28;47154;-78
2021/08/20 03:15:40;;;;;;;;;6.25;3.75;;;;;;;;5063016;28;47199;-78
2021/08/20 03:18:05;;;;;;;;;4.25;4.25;;;;;;;;5081522;28;46831;-78
2021/08/20 03:20:30;;;;;;;;;3.00;3.00;;;;;;;;5081565;28;47084;-77
2021/08/20 03:22:56;;;;;;;;;4.75;3.00;;;;;;;;5080532;28;46924;-77
2021/08/20 03:25:21;;;;;;;;;3.75;2.50;;;;;;;;5079819;28;46934;-77
2021/08/20 03:27:46;;;;;;;;;3.00;3.00;;;;;;;;5069384;28;46845;-77
2021/08/20 03:30:12;;;;;;;;;4.25;3.00;;;;;;;;5081424;28;46891;-78
2021/08/20 03:32:37;;;;;;;;;2.00;2.00;;;;;;;;5081439;28;46947;-78
2021/08/20 03:35:03;;;;;;;;;2.25;2.25;;;;;;;;5081022;28;46927;-78
2021/08/20 03:37:29;;;;;;;;;3.50;3.00;;;;;;;;5081211;28;47023;-78
2021/08/20 03:39:54;;;;;;;;;3.00;2.00;;;;;;;;5081223;28;47090;-78
2021/08/20 03:42:19;;;;;;;;;2.75;2.25;;;;;;;;5081109;28;46980;-78
2021/08/20 03:44:45;;;;;;;;;3.25;3.25;;;;;;;;5080866;28;47157;-78
2021/08/20 03:47:10;;;;;;;;;4.75;2.50;;;;;;;;5081194;28;46979;-78
2021/08/20 03:49:36;;;;;;;;;3.00;3.00;;;;;;;;5081202;28;47010;-78
2021/08/20 03:52:02;;;;;;;;;2.00;2.00;;;;;;;;5081302;28;47151;-78
2021/08/20 03:54:27;;;;;;;;;3.50;3.50;;;;;;;;5080968;28;48150;-78
2021/08/20 03:56:53;;;;;;;;;2.25;2.25;;;;;;;;5080568;28;46958;-78
2021/08/20 03:59:18;;;;;;;;;4.25;2.25;;;;;;;;5080764;28;46734;-77
2021/08/20 04:01:43;;;;;;;;;3.50;3.50;;;;;;;;5062804;28;46855;-77
2021/08/20 04:04:09;;;;;;;;;3.50;3.50;;;;;;;;5080894;28;47153;-78
2021/08/20 04:06:34;;;;;;;;;5.00;3.00;;;;;;;;5080644;28;46948;-78
2021/08/20 04:08:59;;;;;;;;;2.50;2.50;;;;;;;;5080932;28;46816;-78
2021/08/20 04:11:25;;;;;;;;;4.50;3.25;;;;;;;;5080992;28;46726;-78
2021/08/20 04:13:50;;;;;;;;;4.50;3.75;;;;;;;;5080058;28;46779;-78
2021/08/20 04:16:15;;;;;;;;;2.50;2.50;;;;;;;;5080490;28;46904;-78
2021/08/20 04:18:42;;;;;;;;;4.25;3.00;;;;;;;;5080580;28;46871;-78
2021/08/20 04:21:07;;;;;;;;;3.00;2.50;;;;;;;;5062449;28;47521;-78
2021/08/20 04:23:34;;;;;;;;;4.75;2.50;;;;;;;;5080444;28;46957;-78
2021/08/20 04:25:59;;;;;;;;;1.75;0.75;;;;;;;;5073739;28;47005;-78
2021/08/20 04:28:25;;;;;;;;;4.00;3.50;;;;;;;;5055485;28;47006;-78
2021/08/20 04:30:50;;;;;;;;;4.00;3.00;;;;;;;;5080714;28;46986;-78
2021/08/20 04:33:15;;;;;;;;;2.50;2.50;;;;;;;;5080365;28;47937;-78
2021/08/20 04:35:40;;;;;;;;;5.25;3.25;;;;;;;;5066432;28;46900;-78
2021/08/20 04:38:06;;;;;;;;;3.50;3.50;;;;;;;;5080644;28;48029;-78
2021/08/20 04:40:31;;;;;;;;;3.25;3.00;;;;;;;;5080468;28;47006;-78
2021/08/20 04:42:57;;;;;;;;;1.50;1.50;;;;;;;;5061634;28;49815;-78
2021/08/20 04:45:22;;;;;;;;;0.00;0.00;;;;;;;;5080263;28;46915;-78
2021/08/20 04:47:49;;;;;;;;;0.00;0.00;;;;;;;;5080694;28;46851;-78
2021/08/20 04:50:14;;;;;;;;;4.00;4.00;;;;;;;;5080307;28;47193;-78
2021/08/20 04:52:40;;;;;;;;;3.00;3.00;;;;;;;;5080108;28;46840;-78
2021/08/20 04:55:06;;;;;;;;;2.75;1.50;;;;;;;;5079924;28;46986;-78
2021/08/20 04:57:31;;;;;;;;;3.25;3.00;;;;;;;;5079792;28;47055;-78
2021/08/20 04:59:58;;;;;;;;;4.00;3.50;;;;;;;;5080137;28;47306;-78
2021/08/20 05:02:24;;;;;;;;;4.00;3.50;;;;;;;;5079986;28;47050;-78
2021/08/20 05:04:49;;;;;;;;;4.25;3.50;;;;;;;;5079777;28;47043;-78
2021/08/20 05:07:14;;;;;;;;;4.00;3.50;;;;;;;;5080049;28;46908;-77
2021/08/20 05:09:40;;;;;;;;;2.50;2.50;;;;;;;;5061806;28;46881;-77
2021/08/20 05:12:06;;;;;;;;;3.50;3.50;;;;;;;;5079575;28;46890;-77
2021/08/20 05:14:32;;;;;;;;;3.75;3.75;;;;;;;;5079419;28;46962;-77
2021/08/20 05:16:57;;;;;;;;;3.00;2.75;;;;;;;;5061549;28;47412;-77
2021/08/20 05:19:22;;;;;;;;;4.00;3.50;;;;;;;;5079879;28;47134;-78
2021/08/20 05:21:47;;;;;;;;;4.75;3.50;;;;;;;;5061301;28;47096;-78
2021/08/20 05:24:13;;;;;;;;;4.50;3.50;;;;;;;;5061245;28;47497;-78
2021/08/20 05:26:38;;;;;;;;;4.50;3.75;;;;;;;;5067222;28;46833;-77
2021/08/20 05:29:03;;;;;;;;;4.50;3.50;;;;;;;;5078972;28;46800;-77
2021/08/20 05:31:29;;;;;;;;;3.50;3.50;;;;;;;;5079640;28;46856;-78
2021/08/20 05:33:54;;;;;;;;;2.50;1.75;;;;;;;;5079322;28;46978;-77
2021/08/20 05:36:19;;;;;;;;;3.50;3.50;;;;;;;;5079564;28;46885;-77
2021/08/20 05:38:45;;;;;;;;;3.50;3.50;;;;;;;;5079424;28;46774;-77
2021/08/20 05:41:10;;;;;;;;;4.50;4.50;;;;;;;;5079517;28;47759;-77
2021/08/20 05:43:35;;;;;;;;;5.00;3.25;;;;;;;;5078700;28;47039;-77
2021/08/20 05:46:01;;;;;;;;;3.00;2.50;;;;;;;;5078450;28;46871;-78
2021/08/20 05:48:26;;;;;;;;;4.50;3.75;;;;;;;;5079407;28;46865;-78
2021/08/20 05:50:52;;;;;;;;;3.50;3.00;;;;;;;;5061092;28;49082;-77
2021/08/20 05:53:17;;;;;;;;;5.00;3.50;;;;;;;;5078987;28;47113;-77
2021/08/20 05:55:42;;;;;;;;;6.00;4.25;;;;;;;;5079431;28;47236;-77
2021/08/20 05:58:08;;;;;;;;;4.00;3.50;;;;;;;;5060512;28;47067;-77
2021/08/20 06:00:33;;;;;;;;;5.00;3.50;;;;;;;;5079083;28;46876;-77
2021/08/20 06:02:59;;;;;;;;;4.00;3.75;;;;;;;;5078827;28;47163;-78
2021/08/20 06:05:24;;;;;;;;;5.00;3.50;;;;;;;;5079163;28;47005;-77
2021/08/20 06:07:49;;;;;;;;;5.25;5.25;;;;;;;;5060914;28;47016;-77
2021/08/20 06:10:15;;;;;;;;;3.25;3.25;;;;;;;;5079040;28;46923;-77
2021/08/20 06:12:41;;;;;;;;;3.25;3.25;;;;;;;;5078390;28;46979;-77
2021/08/20 06:15:06;;;;;;;;;4.75;3.75;;;;;;;;5078931;28;46861;-77
2021/08/20 06:17:32;;;;;;;;;5.00;3.50;;;;;;;;5078998;28;47291;-78
2021/08/20 06:19:57;;;;;;;;;2.75;2.50;;;;;;;;5078921;28;47968;-77
2021/08/20 06:22:22;;;;;;;;;5.75;4.00;;;;;;;;5078653;28;46927;-77
2021/08/20 06:24:48;;;;;;;;;3.25;3.25;;;;;;;;5078915;28;47116;-77
2021/08/20 06:27:13;;;;;;;;;3.50;3.25;;;;;;;;5065279;28;46989;-77
2021/08/20 06:29:38;;;;;;;;;5.00;4.75;;;;;;;;5078678;28;46825;-77
2021/08/20 06:32:04;;;;;;;;;5.25;4.50;;;;;;;;5060389;28;46877;-78
2021/08/20 06:34:31;;;;;;;;;5.75;3.75;;;;;;;;5078621;28;47081;-78
2021/08/20 06:36:57;;;;;;;;;5.00;3.25;;;;;;;;5060537;28;47348;-77
2021/08/20 06:39:22;;;;;;;;;2.50;2.50;;;;;;;;5078573;28;46990;-77
2021/08/20 06:41:47;;;;;;;;;4.50;4.25;;;;;;;;5078205;28;47019;-77
2021/08/20 06:44:13;;;;;;;;;4.50;4.50;;;;;;;;5078500;28;46823;-77
2021/08/20 06:46:38;;;;;;;;;5.00;5.00;;;;;;;;5078661;28;47124;-77
2021/08/20 06:49:03;;;;;;;;;8.00;4.75;;;;;;;;5078576;28;47696;-77
2021/08/20 06:51:29;;;;;;;;;4.50;3.75;;;;;;;;5060243;28;47020;-78
2021/08/20 06:53:54;;;;;;;;;5.25;5.25;;;;;;;;5078507;28;47532;-77
2021/08/20 06:56:19;;;;;;;;;6.75;4.75;;;;;;;;5078625;28;47139;-77
2021/08/20 06:58:45;;;;;;;;;4.75;4.00;;;;;;;;5080774;28;47634;-77
2021/08/20 07:01:10;;;;;;;;;6.50;4.25;;;;;;;;5081830;28;46888;-77
2021/08/20 07:03:35;;;;;;;;;5.25;5.00;;;;;;;;5063647;28;47056;-78
2021/08/20 07:06:01;;;;;;;;;7.00;5.00;;;;;;;;5081856;28;46899;-77
2021/08/20 07:08:26;;;;;;;;;5.00;5.00;;;;;;;;5081629;28;47760;-77
2021/08/20 07:10:51;;;;;;;;;7.00;5.75;;;;;;;;5063400;28;47049;-77
2021/08/20 07:13:17;;;;;;;;;9.00;4.75;;;;;;;;5081387;28;46942;-78
2021/08/20 07:15:42;;;;;;;;;4.75;4.75;;;;;;;;5063271;28;47374;-78
2021/08/20 07:18:07;;;;;;;;;6.75;5.00;;;;;;;;5081611;28;46986;-78
2021/08/20 07:20:33;;;;;;;;;5.00;4.00;;;;;;;;5081325;28;46891;-78
2021/08/20 07:22:58;;;;;;;;;5.50;5.00;;;;;;;;5081719;28;46927;-78
2021/08/20 07:25:23;;;;;;;;;8.50;6.00;;;;;;;;5079673;28;46756;-77
2021/08/20 07:27:49;;;;;;;;;5.00;4.00;;;;;;;;5069666;28;47800;-77
2021/08/20 07:30:14;;;;;;;;;5.00;4.25;;;;;;;;5081332;28;46968;-77
2021/08/20 07:32:39;;;;;;;;;4.50;4.00;;;;;;;;5081500;28;46933;-78
2021/08/20 07:35:05;;;;;;;;;4.50;4.00;;;;;;;;5081366;28;46752;-77
2021/08/20 07:37:30;;;;;;;;;4.75;4.00;;;;;;;;5081388;28;46974;-77
2021/08/20 07:39:56;;;;;;;;;4.75;4.00;;;;;;;;5081084;28;46852;-78
2021/08/20 07:42:21;;;;;;;;;5.00;5.00;;;;;;;;5081004;28;46818;-78
2021/08/20 07:44:47;;;;;;;;;4.25;4.00;;;;;;;;5062949;28;46859;-78
2021/08/20 07:47:12;;;;;;;;;5.00;4.00;;;;;;;;5081099;28;46921;-78
2021/08/20 07:49:37;;;;;;;;;5.00;4.00;;;;;;;;5081314;28;47079;-78
2021/08/20 07:52:03;;;;;;;;;3.75;3.50;;;;;;;;5081214;28;46991;-78
2021/08/20 07:54:28;;;;;;;;;6.75;6.00;;;;;;;;5081110;28;46928;-78
2021/08/20 07:56:53;;;;;;;;;4.25;3.75;;;;;;;;5080785;28;47793;-78
2021/08/20 07:59:19;;;;;;;;;5.00;5.00;;;;;;;;5062515;28;46907;-78
2021/08/20 08:01:44;;;;;;;;;4.25;4.25;;;;;;;;5081251;28;46949;-78
2021/08/20 08:04:09;;;;;;;;;7.25;6.50;;;;;;;;5081044;28;46939;-78
2021/08/20 08:06:35;;;;;;;;;8.00;5.00;;;;;;;;5062439;28;48494;-77
2021/08/20 08:09:01;;;;;;;;;5.25;5.25;;;;;;;;5079995;28;46917;-77
2021/08/20 08:11:31;;;;;;;;;4.75;4.75;;;;;;;;5080606;28;47072;-78
2021/08/20 08:14:02;;;;;;;;;9.00;7.75;;;;;;;;5080434;28;46891;-77
2021/08/20 08:16:28;;;;;;;;;9.75;8.25;;;;;;;;5080618;28;47966;-77
2021/08/20 08:18:53;;;;;;;;;6.25;5.50;;;;;;;;5080398;28;46839;-78
2021/08/20 08:21:18;;;;;;;;;13.50;7.50;;;;;;;;5080525;28;46907;-78
2021/08/20 08:23:43;;;;;;;;;8.25;8.00;;;;;;;;5080565;28;47187;-78
2021/08/20 08:26:09;;;;;;;;;8.00;6.75;;;;;;;;5072256;28;46939;-78
2021/08/20 08:28:50;;;;;;;;;7.00;5.75;;;;;;;;5059955;28;47261;-77
2021/08/20 08:31:15;;;;;;;;;8.50;7.25;;;;;;;;5080512;28;47193;-78
2021/08/20 08:33:41;;;;;;;;;8.25;6.75;;;;;;;;5080339;28;47098;-78
2021/08/20 08:36:06;;;;;;;;;9.00;8.00;;;;;;;;5080275;28;47660;-78
2021/08/20 08:38:31;;;;;;;;;8.50;7.25;;;;;;;;5061945;28;47078;-78
2021/08/20 08:40:57;;;;;;;;;8.00;6.50;;;;;;;;5080287;28;47087;-78
2021/08/20 08:43:22;;;;;;;;;8.00;8.00;;;;;;;;5079952;28;47072;-78
2021/08/20 08:45:48;;;;;;;;;7.50;5.25;;;;;;;;5079935;28;46855;-78
2021/08/20 08:48:14;;;;;;;;;6.25;6.25;;;;;;;;5080025;28;46789;-78
2021/08/20 08:50:44;;;;;;;;;8.25;6.50;;;;;;;;5080135;28;46943;-78
2021/08/20 08:53:09;;;;;;;;;9.25;5.25;;;;;;;;5080239;28;47773;-78
2021/08/20 08:55:35;;;;;;;;;6.00;6.00;;;;;;;;5061654;28;46967;-78
2021/08/20 08:58:04;;;;;;;;;5.75;5.00;;;;;;;;5079378;28;47037;-78
2021/08/20 09:00:30;;;;;;;;;7.00;6.50;;;;;;;;5080176;28;46833;-78
2021/08/20 09:02:56;;;;;;;;;7.50;7.00;;;;;;;;5061798;28;46841;-78
2021/08/20 09:05:21;;;;;;;;;9.00;7.25;;;;;;;;5061451;28;47156;-78
2021/08/20 09:07:49;;;;;;;;;7.25;6.75;;;;;;;;5079699;28;46800;-78
2021/08/20 09:10:19;;;;;;;;;8.00;5.50;;;;;;;;5080001;28;46927;-78
2021/08/20 09:12:50;;;;;;;;;11.00;7.00;;;;;;;;5079547;28;47269;-78
2021/08/20 09:15:19;;;;;;;;;7.00;5.50;;;;;;;;5079868;28;48116;-78
2021/08/20 09:17:52;;;;;;;;;6.50;5.50;;;;;;;;5079514;28;47031;-78
2021/08/20 09:20:22;;;;;;;;;8.00;6.25;;;;;;;;5079330;28;46989;-78
2021/08/20 09:22:48;;;;;;;;;8.00;7.00;;;;;;;;5066150;28;46808;-78
2021/08/20 09:25:31;;;;;;;;;8.00;6.00;;;;;;;;5079511;28;47051;-78
2021/08/20 09:28:16;;;;;;;;;8.50;6.50;;;;;;;;5079196;28;47082;-77
2021/08/20 09:30:43;;;;;;;;;6.00;5.00;;;;;;;;5079497;28;46845;-77
2021/08/20 09:33:09;;;;;;;;;3.00;2.00;;;;;;;;5061395;28;47057;-78
2021/08/20 09:35:36;;;;;;;;;9.00;7.50;;;;;;;;5079382;28;48270;-78
2021/08/20 09:38:11;;;;;;;;;6.75;6.50;;;;;;;;5079494;28;47027;-78
2021/08/20 09:40:37;;;;;;;;;7.50;7.50;;;;;;;;5061217;28;47036;-78
2021/08/20 09:43:12;;;;;;;;;7.25;5.75;;;;;;;;5079076;28;46998;-78
2021/08/20 09:45:38;;;;;;;;;5.50;5.00;;;;;;;;5079437;28;48084;-78
2021/08/20 09:48:05;;;;;;;;;5.00;5.00;;;;;;;;5079118;28;46868;-78
2021/08/20 09:50:43;;;;;;;;;5.00;5.00;;;;;;;;5079522;28;46785;-78
2021/08/20 09:53:12;;;;;;;;;6.75;5.00;;;;;;;;5079471;28;46964;-78
2021/08/20 09:55:38;;;;;;;;;6.00;6.00;;;;;;;;5079179;28;47939;-78
2021/08/20 09:58:05;;;;;;;;;7.25;5.25;;;;;;;;5078664;28;47207;-78
2021/08/20 10:00:32;;;;;;;;;6.75;3.75;;;;;;;;5079314;28;47080;-78
2021/08/20 10:02:57;;;;;;;;;6.00;4.75;;;;;;;;5079283;28;46949;-78
2021/08/20 10:05:23;;;;;;;;;3.75;3.75;;;;;;;;5078981;28;47192;-78
2021/08/20 10:07:49;;;;;;;;;7.00;5.75;;;;;;;;5079126;28;46957;-78
2021/08/20 10:10:14;;;;;;;;;4.25;4.25;;;;;;;;5079149;28;46931;-78
2021/08/20 10:12:40;;;;;;;;;4.50;4.50;;;;;;;;5078692;28;47030;-78
2021/08/20 10:15:06;;;;;;;;;5.00;5.00;;;;;;;;5060469;28;49389;-78
2021/08/20 10:17:32;;;;;;;;;5.25;5.25;;;;;;;;5078988;28;46990;-78
2021/08/20 10:19:59;;;;;;;;;4.25;3.00;;;;;;;;5060719;28;47054;-78
2021/08/20 10:22:25;;;;;;;;;4.75;4.75;;;;;;;;5060615;28;47246;-78
2021/08/20 10:24:50;;;;;;;;;4.50;3.75;;;;;;;;5078819;28;46864;-78
2021/08/20 10:27:16;;;;;;;;;4.25;4.25;;;;;;;;5065321;28;46984;-78
2021/08/20 10:29:44;;;;;;;;;6.00;6.00;;;;;;;;5078923;28;46828;-78
2021/08/20 10:32:10;;;;;;;;;5.50;4.25;;;;;;;;5079441;28;47006;-78
2021/08/20 10:34:37;;;;;;;;;4.75;4.00;;;;;;;;5082301;28;47161;-78
2021/08/20 10:37:13;;;;;;;;;5.50;5.00;;;;;;;;5063845;28;46847;-78
2021/08/20 10:39:40;;;;;;;;;4.25;4.25;;;;;;;;5082235;28;46770;-78
2021/08/20 10:42:06;;;;;;;;;6.00;4.00;;;;;;;;5081999;28;47213;-78
2021/08/20 10:44:57;;;;;;;;;5.50;5.50;;;;;;;;5081940;28;46791;-78
2021/08/20 10:47:27;;;;;;;;;2.75;2.50;;;;;;;;5059706;28;47485;-78
2021/08/20 10:50:12;;;;;;;;;2.25;2.25;;;;;;;;5082160;28;46754;-78
2021/08/20 10:52:39;;;;;;;;;4.00;3.00;;;;;;;;5081757;27;46753;-78
2021/08/20 10:55:16;;;;;;;;;2.50;2.00;;;;;;;;5081929;28;47022;-78
2021/08/20 10:57:42;;;;;;;;;2.25;2.25;;;;;;;;5081399;28;46907;-78
2021/08/20 11:00:19;;;;;;;;;2.00;2.00;;;;;;;;5082054;28;46998;-78
2021/08/20 11:02:47;;;;;;;;;2.50;2.00;;;;;;;;5081956;28;47253;-78
2021/08/20 11:05:16;;;;;;;;;3.25;1.50;;;;;;;;5063414;28;49697;-78
2021/08/20 11:07:44;;;;;;;;;2.00;2.00;;;;;;;;5081704;28;46975;-78
2021/08/20 11:10:09;;;;;;;;;2.25;2.25;;;;;;;;5081775;28;46931;-78
2021/08/20 11:12:36;;;;;;;;;2.50;2.50;;;;;;;;5081377;28;46840;-78
2021/08/20 11:15:27;;;;;;;;;2.00;2.00;;;;;;;;5081507;28;46813;-78
2021/08/20 11:18:00;;;;;;;;;2.25;2.25;;;;;;;;5077659;27;47283;-78
2021/08/20 11:20:26;;;;;;;;;3.25;2.25;;;;;;;;5081538;28;47011;-78
2021/08/20 11:23:12;;;;;;;;;2.75;2.25;;;;;;;;5081910;28;47010;-78
2021/08/20 11:25:38;;;;;;;;;2.50;1.50;;;;;;;;5077222;27;48179;-78
2021/08/20 11:28:05;;;;;;;;;3.50;2.00;;;;;;;;5072282;28;47003;-78
2021/08/20 11:30:31;;;;;;;;;3.50;2.00;;;;;;;;5081454;28;46792;-78
2021/08/20 11:33:06;;;;;;;;;2.00;2.00;;;;;;;;5081618;28;47016;-78
2021/08/20 11:35:32;;;;;;;;;5.75;2.75;;;;;;;;5081131;28;46876;-78
2021/08/20 11:37:57;;;;;;;;;2.00;2.00;;;;;;;;5081412;28;46892;-78
2021/08/20 11:40:22;;;;;;;;;1.50;1.50;;;;;;;;5081182;28;46856;-78
2021/08/20 11:43:07;;;;;;;;;2.00;2.00;;;;;;;;5081398;28;46976;-78
2021/08/20 11:45:33;;;;;;;;;1.75;1.75;;;;;;;;5080180;28;47625;-78
2021/08/20 11:47:59;;;;;;;;;2.00;2.00;;;;;;;;5081121;28;47167;-78
2021/08/20 11:50:28;;;;;;;;;1.00;1.00;;;;;;;;5062906;28;46963;-78
2021/08/20 11:52:53;;;;;;;;;1.00;1.00;;;;;;;;5081187;28;46970;-78
2021/08/20 11:55:19;;;;;;;;;1.75;1.75;;;;;;;;5080957;28;46949;-78
2021/08/20 11:57:45;;;;;;;;;2.00;1.25;;;;;;;;5080344;28;46872;-78
2021/08/20 12:00:11;;;;;;;;;2.00;1.00;;;;;;;;5081103;28;46935;-78
2021/08/20 12:02:36;;;;;;;;;1.00;1.00;;;;;;;;5062737;28;46776;-78
2021/08/20 12:05:18;;;;;;;;;2.00;1.25;;;;;;;;5080802;28;47571;-78
2021/08/20 12:07:44;;;;;;;;;2.00;1.00;;;;;;;;5080783;28;46927;-78
2021/08/20 12:10:10;;;;;;;;;1.25;0.75;;;;;;;;5081260;28;46914;-78
2021/08/20 12:12:43;;;;;;;;;2.50;2.00;;;;;;;;5062091;28;46936;-78
2021/08/20 12:15:09;;;;;;;;;1.00;1.00;;;;;;;;5080767;28;47811;-78
2021/08/20 12:17:35;;;;;;;;;2.00;1.00;;;;;;;;5080592;28;46812;-78
2021/08/20 12:20:02;;;;;;;;;1.00;1.00;;;;;;;;5062460;28;47006;-78
2021/08/20 12:22:36;;;;;;;;;1.00;1.00;;;;;;;;5062384;28;47293;-78
2021/08/20 12:25:14;;;;;;;;;1.00;1.00;;;;;;;;5080431;28;47201;-78
2021/08/20 12:27:41;;;;;;;;;1.75;1.75;;;;;;;;5067044;28;46828;-78
2021/08/20 12:30:07;;;;;;;;;2.00;1.00;;;;;;;;5080630;28;47066;-78
2021/08/20 12:32:34;;;;;;;;;3.50;3.00;;;;;;;;5080461;28;46885;-78
2021/08/20 12:35:06;;;;;;;;;1.00;1.00;;;;;;;;5080248;28;47054;-78
2021/08/20 12:37:33;;;;;;;;;2.00;2.00;;;;;;;;5080489;28;47086;-78
2021/08/20 12:40:16;;;;;;;;;1.00;1.00;;;;;;;;5080420;28;46848;-78
2021/08/20 12:42:46;;;;;;;;;2.50;2.00;;;;;;;;5061835;28;46837;-78
2021/08/20 12:45:18;;;;;;;;;1.00;1.00;;;;;;;;5080174;28;46869;-78
2021/08/20 12:47:59;;;;;;;;;1.00;1.00;;;;;;;;5061982;28;47145;-78
2021/08/20 12:50:25;;;;;;;;;2.00;2.00;;;;;;;;5080251;28;47014;-78
2021/08/20 12:52:59;;;;;;;;;1.00;1.00;;;;;;;;5080124;28;47065;-78
2021/08/20 12:55:28;;;;;;;;;3.00;1.25;;;;;;;;5079799;28;47032;-78
2021/08/20 12:57:54;;;;;;;;;3.00;2.25;;;;;;;;5079553;28;46738;-78
2021/08/20 13:00:20;;;;;;;;;0.50;0.50;;;;;;;;5061806;28;46951;-78
2021/08/20 13:02:45;;;;;;;;;1.00;1.00;;;;;;;;5080262;28;46824;-78
2021/08/20 13:05:11;;;;;;;;;1.00;1.00;;;;;;;;5079749;28;47725;-78
2021/08/20 13:07:36;;;;;;;;;1.25;1.25;;;;;;;;5079831;28;46845;-78
2021/08/20 13:10:02;;;;;;;;;1.00;1.00;;;;;;;;5079891;28;46886;-78
2021/08/20 13:12:27;;;;;;;;;2.50;1.00;;;;;;;;5079750;28;47262;-78
2021/08/20 13:14:55;;;;;;;;;2.00;1.75;;;;;;;;5079643;28;46848;-78
2021/08/20 13:17:21;;;;;;;;;2.00;2.00;;;;;;;;5079680;28;47105;-78
2021/08/20 13:19:46;;;;;;;;;1.25;1.25;;;;;;;;5079950;28;47012;-78
2021/08/20 13:22:12;;;;;;;;;1.00;1.00;;;;;;;;5079866;28;47056;-78
2021/08/20 13:24:38;;;;;;;;;2.50;1.50;;;;;;;;5079586;28;47088;-78
2021/08/20 13:27:03;;;;;;;;;1.00;1.00;;;;;;;;5065964;28;46837;-78
2021/08/20 13:29:29;;;;;;;;;1.25;1.00;;;;;;;;5079610;28;46761;-78
2021/08/20 13:31:55;;;;;;;;;2.00;1.00;;;;;;;;5079660;28;46768;-78
2021/08/20 13:34:20;;;;;;;;;1.00;1.00;;;;;;;;5079394;28;47576;-78
2021/08/20 13:36:45;;;;;;;;;1.00;1.00;;;;;;;;5079363;28;46870;-78
2021/08/20 13:39:11;;;;;;;;;2.00;2.00;;;;;;;;5079568;28;47050;-78
2021/08/20 13:41:36;;;;;;;;;2.00;2.00;;;;;;;;5079206;28;46944;-78
2021/08/20 13:44:01;;;;;;;;;1.00;1.00;;;;;;;;5079208;28;47896;-78
2021/08/20 13:46:26;;;;;;;;;2.00;2.00;;;;;;;;5079415;28;46925;-78
2021/08/20 13:48:52;;;;;;;;;2.00;2.00;;;;;;;;5079407;28;46955;-78
2021/08/20 13:51:18;;;;;;;;;2.75;2.75;;;;;;;;5079476;28;46847;-78
2021/08/20 13:53:44;;;;;;;;;2.00;2.00;;;;;;;;5079289;28;47108;-78
2021/08/20 13:56:09;;;;;;;;;2.00;2.00;;;;;;;;5078728;28;47070;-78
2021/08/20 13:58:34;;;;;;;;;1.00;1.00;;;;;;;;5079125;28;46998;-78
2021/08/20 14:01:00;;;;;;;;;2.00;1.00;;;;;;;;5061002;28;47231;-78
2021/08/20 14:03:25;;;;;;;;;1.50;1.50;;;;;;;;5079162;28;47105;-78
2021/08/20 14:05:50;;;;;;;;;1.00;1.00;;;;;;;;5078985;28;46994;-78
2021/08/20 14:08:16;;;;;;;;;1.00;1.00;;;;;;;;5081373;28;47060;-78
2021/08/20 14:10:41;;;;;;;;;1.00;1.00;;;;;;;;5082926;28;46924;-78
2021/08/20 14:13:06;;;;;;;;;2.00;1.00;;;;;;;;5082157;28;47363;-78
2021/08/20 14:15:32;;;;;;;;;1.00;1.00;;;;;;;;5082378;28;46995;-78
2021/08/20 14:17:57;;;;;;;;;2.00;2.00;;;;;;;;5082635;28;47115;-78
2021/08/20 14:20:23;;;;;;;;;2.00;2.00;;;;;;;;5082776;28;47025;-78
2021/08/20 14:22:48;;;;;;;;;2.00;2.00;;;;;;;;5082706;28;48144;-78
2021/08/20 14:25:14;;;;;;;;;1.00;1.00;;;;;;;;5082029;28;46762;-78
2021/08/20 14:27:39;;;;;;;;;2.00;2.00;;;;;;;;5050850;28;47074;-78
2021/08/20 14:30:05;;;;;;;;;1.00;1.00;;;;;;;;5082749;28;46956;-78
2021/08/20 14:32:31;;;;;;;;;2.00;2.00;;;;;;;;5082253;28;46963;-78
2021/08/20 14:34:56;;;;;;;;;3.00;3.00;;;;;;;;5082178;28;46786;-78
2021/08/20 14:37:22;;;;;;;;;3.75;2.00;;;;;;;;5082472;28;46947;-78
2021/08/20 14:39:48;;;;;;;;;3.75;3.75;;;;;;;;5082489;28;46758;-78